Time;durP1;ratioP1;P1;durP2;ratioP2;P2;SDS_P1;SDS_P2;PMS_P1;PMS_P2;Temp;Humidity;BMP_temperature;BMP_pressure;BME280_temperature;BME280_humidity;BME280_pressure;Samples;Min_cycle;Max_cycle;Signal;HPM_P1;HPM_P2
2022/03/08 00:00:47;;;;;;;;;;;1.30;99.90;;;;;;5052422;28;19948;-76
2022/03/08 00:03:14;;;;;;;;;;;1.30;99.90;;;;;;5052319;28;19925;-74
2022/03/08 00:05:41;;;;;;;;;;;1.30;99.90;;;;;;5052225;28;20472;-76
2022/03/08 00:08:08;;;;;;;;;;;1.40;99.90;;;;;;5052696;28;19925;-76
2022/03/08 00:10:35;;;;;;;;;;;1.40;99.90;;;;;;5051481;28;19932;-76
2022/03/08 00:13:02;;;;;;;;;;;1.40;99.90;;;;;;5052570;28;20006;-77
2022/03/08 00:15:28;;;;;;;;;;;1.40;99.90;;;;;;5052401;28;19994;-76
2022/03/08 00:17:58;;;;;;;;;;;1.50;99.90;;;;;;5052487;28;19976;-76
2022/03/08 00:20:25;;;;;;;;;;;1.40;99.90;;;;;;5051753;28;19931;-76
2022/03/08 00:22:52;;;;;;;;;;;1.40;99.90;;;;;;5069181;28;19928;-76
2022/03/08 00:25:19;;;;;;;;;;;1.40;99.90;;;;;;5051962;28;19924;-76
2022/03/08 00:27:47;;;;;;;;;;;1.40;99.90;;;;;;5052011;28;20399;-74
2022/03/08 00:30:14;;;;;;;;;;;1.40;99.90;;;;;;5051473;28;19925;-77
2022/03/08 00:32:41;;;;;;;;;;;1.30;99.90;;;;;;5051840;28;19974;-76
2022/03/08 00:35:10;;;;;;;;;;;1.30;99.90;;;;;;5052239;28;20315;-76
2022/03/08 00:37:37;;;;;;;;;;;1.30;99.90;;;;;;5096987;22;20398;-75
2022/03/08 00:40:04;;;;;;;;;;;1.40;99.90;;;;;;5093629;28;19924;-75
2022/03/08 00:42:30;;;;;;;;;;;1.40;99.90;;;;;;5094707;28;19939;-74
2022/03/08 00:44:57;;;;;;;;;;;1.30;99.90;;;;;;5094441;28;19927;-75
2022/03/08 00:47:25;;;;;;;;;;;1.30;99.90;;;;;;5111636;27;19924;-74
2022/03/08 00:49:52;;;;;;;;;;;1.30;99.90;;;;;;5124627;27;19978;-75
2022/03/08 00:52:21;;;;;;;;;;;1.30;99.90;;;;;;5125075;27;20004;-75
2022/03/08 00:54:48;;;;;;;;;;;1.20;99.90;;;;;;5125080;27;19953;-74
2022/03/08 00:57:15;;;;;;;;;;;1.20;99.90;;;;;;5125100;27;19946;-75
2022/03/08 00:59:42;;;;;;;;;;;1.20;99.90;;;;;;5124579;27;19924;-75
2022/03/08 01:02:09;;;;;;;;;;;1.20;99.90;;;;;;5124720;27;19924;-75
2022/03/08 01:04:36;;;;;;;;;;;1.20;99.90;;;;;;5090835;28;20341;-75
2022/03/08 01:07:03;;;;;;;;;;;1.20;99.90;;;;;;5090660;28;19970;-75
2022/03/08 01:09:31;;;;;;;;;;;1.20;99.90;;;;;;5124420;27;20359;-75
2022/03/08 01:11:58;;;;;;;;;;;1.10;99.90;;;;;;5124805;27;19924;-74
2022/03/08 01:14:25;;;;;;;;;;;1.10;99.90;;;;;;5124739;27;19930;-75
2022/03/08 01:16:52;;;;;;;;;;;1.10;99.90;;;;;;5124493;27;19929;-74
2022/03/08 01:19:18;;;;;;;;;;;1.10;99.90;;;;;;5124441;27;19928;-75
2022/03/08 01:21:45;;;;;;;;;;;1.10;99.90;;;;;;5124791;27;19928;-75
2022/03/08 01:24:12;;;;;;;;;;;1.20;99.90;;;;;;5124739;27;19931;-74
2022/03/08 01:26:40;;;;;;;;;;;1.20;99.90;;;;;;5090313;28;19974;-74
2022/03/08 01:29:07;;;;;;;;;;;1.20;99.90;;;;;;5123894;27;19928;-75
2022/03/08 01:31:34;;;;;;;;;;;1.10;99.90;;;;;;5124180;27;19977;-74
2022/03/08 01:34:01;;;;;;;;;;;1.10;99.90;;;;;;5124578;27;19936;-75
2022/03/08 01:36:28;;;;;;;;;;;1.10;99.90;;;;;;5124538;27;19959;-75
2022/03/08 01:38:55;;;;;;;;;;;1.10;99.90;;;;;;5123648;27;19990;-76
2022/03/08 01:41:22;;;;;;;;;;;1.10;99.90;;;;;;5124344;27;19924;-75
2022/03/08 01:43:50;;;;;;;;;;;1.10;99.90;;;;;;5124199;27;20448;-74
2022/03/08 01:46:17;;;;;;;;;;;1.00;99.90;;;;;;5090236;28;20453;-75
2022/03/08 01:48:45;;;;;;;;;;;1.10;99.90;;;;;;5124029;27;19931;-71
2022/03/08 01:51:12;;;;;;;;;;;1.10;99.90;;;;;;5124348;27;19924;-73
2022/03/08 01:53:40;;;;;;;;;;;1.20;99.90;;;;;;5086795;28;20432;-73
2022/03/08 01:56:07;;;;;;;;;;;1.10;99.90;;;;;;5087585;28;20018;-72
2022/03/08 01:58:34;;;;;;;;;;;1.10;99.90;;;;;;5089668;28;19931;-73
2022/03/08 02:01:03;;;;;;;;;;;1.10;99.90;;;;;;5089320;28;20048;-73
2022/03/08 02:03:29;;;;;;;;;;;1.10;99.90;;;;;;5090100;28;19928;-73
2022/03/08 02:05:56;;;;;;;;;;;1.00;99.90;;;;;;5089519;28;19924;-73
2022/03/08 02:08:23;;;;;;;;;;;1.00;99.90;;;;;;5089745;28;19928;-71
2022/03/08 02:10:51;;;;;;;;;;;1.00;99.90;;;;;;5089188;28;19928;-72
2022/03/08 02:13:18;;;;;;;;;;;1.00;99.90;;;;;;5089999;28;19924;-72
2022/03/08 02:15:48;;;;;;;;;;;0.90;99.90;;;;;;5089607;28;19928;-72
2022/03/08 02:18:17;;;;;;;;;;;0.90;99.90;;;;;;5089634;28;20353;-74
2022/03/08 02:20:43;;;;;;;;;;;0.90;99.90;;;;;;5089258;28;19931;-73
2022/03/08 02:23:12;;;;;;;;;;;0.90;99.90;;;;;;5089784;28;19928;-74
2022/03/08 02:25:39;;;;;;;;;;;0.90;99.90;;;;;;5089598;28;19928;-73
2022/03/08 02:28:06;;;;;;;;;;;0.90;99.90;;;;;;5088815;28;19974;-74
2022/03/08 02:30:33;;;;;;;;;;;0.90;99.90;;;;;;5088992;28;19928;-74
2022/03/08 02:33:00;;;;;;;;;;;1.00;99.90;;;;;;5090279;28;19928;-73
2022/03/08 02:35:28;;;;;;;;;;;0.90;99.90;;;;;;5093969;28;20334;-74
2022/03/08 02:37:55;;;;;;;;;;;1.00;99.90;;;;;;5093510;28;19928;-74
2022/03/08 02:40:24;;;;;;;;;;;1.00;99.90;;;;;;5093320;28;19928;-74
2022/03/08 02:42:51;;;;;;;;;;;1.00;99.90;;;;;;5093668;28;20354;-73
2022/03/08 02:45:18;;;;;;;;;;;0.90;99.90;;;;;;5093255;28;19924;-73
2022/03/08 02:47:45;;;;;;;;;;;0.90;99.90;;;;;;5093453;28;19928;-73
2022/03/08 02:50:13;;;;;;;;;;;0.90;99.90;;;;;;5093180;28;19974;-73
2022/03/08 02:52:41;;;;;;;;;;;0.90;99.90;;;;;;5093466;28;20353;-73
2022/03/08 02:55:08;;;;;;;;;;;0.90;99.90;;;;;;5093510;28;19935;-74
2022/03/08 02:57:36;;;;;;;;;;;0.80;99.90;;;;;;5093128;28;19928;-73
2022/03/08 03:00:05;;;;;;;;;;;0.80;99.90;;;;;;5092641;28;19990;-74
2022/03/08 03:02:32;;;;;;;;;;;0.80;99.90;;;;;;5093510;28;19938;-73
2022/03/08 03:04:58;;;;;;;;;;;0.80;99.90;;;;;;5093324;28;19993;-74
2022/03/08 03:07:25;;;;;;;;;;;0.70;99.90;;;;;;5092949;28;19943;-74
2022/03/08 03:09:52;;;;;;;;;;;0.70;99.90;;;;;;5092509;28;19928;-74
2022/03/08 03:12:19;;;;;;;;;;;0.60;99.90;;;;;;5092919;28;19928;-74
2022/03/08 03:14:47;;;;;;;;;;;0.60;99.90;;;;;;5092745;28;19924;-74
2022/03/08 03:17:14;;;;;;;;;;;0.60;99.90;;;;;;5093099;28;19924;-74
2022/03/08 03:19:41;;;;;;;;;;;0.60;99.90;;;;;;5092399;28;20302;-74
2022/03/08 03:22:08;;;;;;;;;;;0.50;99.90;;;;;;5092997;28;19932;-73
2022/03/08 03:24:34;;;;;;;;;;;0.50;99.90;;;;;;5092966;28;19924;-74
2022/03/08 03:27:01;;;;;;;;;;;0.50;99.90;;;;;;5092605;28;19931;-74
2022/03/08 03:29:28;;;;;;;;;;;0.40;99.90;;;;;;5092332;28;19943;-74
2022/03/08 03:31:56;;;;;;;;;;;0.40;99.90;;;;;;5092877;28;19931;-74
2022/03/08 03:34:23;;;;;;;;;;;0.40;99.90;;;;;;5092790;28;19928;-74
2022/03/08 03:36:50;;;;;;;;;;;0.30;99.90;;;;;;5092309;28;19928;-74
2022/03/08 03:39:17;;;;;;;;;;;0.30;99.90;;;;;;5092044;28;19928;-75
2022/03/08 03:41:43;;;;;;;;;;;0.30;99.90;;;;;;5092198;28;19931;-73
2022/03/08 03:44:11;;;;;;;;;;;0.30;99.90;;;;;;5091861;28;20399;-74
2022/03/08 03:46:38;;;;;;;;;;;0.30;99.90;;;;;;5091554;28;19928;-74
2022/03/08 03:49:07;;;;;;;;;;;0.30;99.90;;;;;;5091894;28;19927;-74
2022/03/08 03:51:33;;;;;;;;;;;0.30;99.90;;;;;;5092468;28;19924;-74
2022/03/08 03:54:00;;;;;;;;;;;0.40;99.90;;;;;;5092162;28;19928;-74
2022/03/08 03:56:27;;;;;;;;;;;0.40;99.90;;;;;;5092284;28;19973;-74
2022/03/08 03:58:54;;;;;;;;;;;0.40;99.90;;;;;;5091349;28;19994;-74
2022/03/08 04:01:20;;;;;;;;;;;0.40;99.90;;;;;;5092123;28;19924;-74
2022/03/08 04:03:47;;;;;;;;;;;0.40;99.90;;;;;;5092285;28;19924;-74
2022/03/08 04:06:15;;;;;;;;;;;0.50;99.90;;;;;;5092275;28;19924;-75
2022/03/08 04:08:43;;;;;;;;;;;0.50;99.90;;;;;;5091764;28;19928;-74
2022/03/08 04:11:10;;;;;;;;;;;0.50;99.90;;;;;;5091793;28;19928;-74
2022/03/08 04:13:37;;;;;;;;;;;0.60;99.90;;;;;;5091587;28;19924;-74
2022/03/08 04:16:04;;;;;;;;;;;0.60;99.90;;;;;;5091640;28;19976;-74
2022/03/08 04:18:31;;;;;;;;;;;0.60;99.90;;;;;;5091846;28;19992;-75
2022/03/08 04:20:57;;;;;;;;;;;0.60;99.90;;;;;;5091431;28;20482;-74
2022/03/08 04:23:26;;;;;;;;;;;0.60;99.90;;;;;;5091754;28;19981;-73
2022/03/08 04:25:52;;;;;;;;;;;0.50;99.90;;;;;;5091611;28;19935;-74
2022/03/08 04:28:19;;;;;;;;;;;0.50;99.90;;;;;;5091439;28;19924;-74
2022/03/08 04:30:46;;;;;;;;;;;0.60;99.90;;;;;;5090992;28;19928;-74
2022/03/08 04:33:13;;;;;;;;;;;0.60;99.90;;;;;;5091539;28;19932;-74
2022/03/08 04:35:39;;;;;;;;;;;0.50;99.90;;;;;;5091478;28;19931;-74
2022/03/08 04:38:06;;;;;;;;;;;0.50;99.90;;;;;;5091111;28;19928;-74
2022/03/08 04:40:35;;;;;;;;;;;0.50;99.90;;;;;;5090853;28;20010;-74
2022/03/08 04:43:01;;;;;;;;;;;0.50;99.90;;;;;;5091309;28;19977;-74
2022/03/08 04:45:28;;;;;;;;;;;0.50;99.90;;;;;;5091271;28;19931;-74
2022/03/08 04:47:55;;;;;;;;;;;0.50;99.90;;;;;;5091157;28;20445;-73
2022/03/08 04:50:22;;;;;;;;;;;0.50;99.90;;;;;;5090740;28;19931;-75
2022/03/08 04:52:49;;;;;;;;;;;0.40;99.90;;;;;;5090976;28;19924;-74
2022/03/08 04:55:18;;;;;;;;;;;0.40;99.90;;;;;;5091079;28;20302;-75
2022/03/08 04:57:46;;;;;;;;;;;0.40;99.90;;;;;;5090776;28;19931;-74
2022/03/08 05:00:14;;;;;;;;;;;0.50;99.90;;;;;;5090578;28;19924;-74
2022/03/08 05:02:42;;;;;;;;;;;0.40;99.90;;;;;;5091228;28;20342;-74
2022/03/08 05:05:09;;;;;;;;;;;0.40;99.90;;;;;;5091069;28;19932;-74
2022/03/08 05:07:36;;;;;;;;;;;0.40;99.90;;;;;;5090804;28;19931;-74
2022/03/08 05:10:03;;;;;;;;;;;0.40;99.90;;;;;;5090374;28;20027;-74
2022/03/08 05:12:30;;;;;;;;;;;0.40;99.90;;;;;;5090661;28;20333;-74
2022/03/08 05:14:58;;;;;;;;;;;0.50;99.90;;;;;;5090762;28;19970;-74
2022/03/08 05:17:25;;;;;;;;;;;0.50;99.90;;;;;;5090809;28;19924;-73
2022/03/08 05:19:52;;;;;;;;;;;0.50;99.90;;;;;;5090331;28;19949;-74
2022/03/08 05:22:18;;;;;;;;;;;0.50;99.90;;;;;;5090574;28;19924;-75
2022/03/08 05:24:45;;;;;;;;;;;0.50;99.90;;;;;;5090389;28;19928;-74
2022/03/08 05:27:12;;;;;;;;;;;0.60;99.90;;;;;;5090686;28;19969;-77
2022/03/08 05:29:39;;;;;;;;;;;0.60;99.90;;;;;;5090618;28;20264;-73
2022/03/08 05:32:08;;;;;;;;;;;0.60;99.90;;;;;;5090349;28;19924;-74
2022/03/08 05:34:34;;;;;;;;;;;0.60;99.90;;;;;;5090440;28;20320;-74
2022/03/08 05:37:01;;;;;;;;;;;0.50;99.90;;;;;;5088874;28;20353;-73
2022/03/08 05:39:28;;;;;;;;;;;0.50;99.90;;;;;;5089833;28;19928;-74
2022/03/08 05:41:55;;;;;;;;;;;0.50;99.90;;;;;;5090430;28;19924;-74
2022/03/08 05:44:22;;;;;;;;;;;0.50;99.90;;;;;;5090546;28;19928;-74
2022/03/08 05:46:50;;;;;;;;;;;0.50;99.90;;;;;;5090309;28;19957;-74
2022/03/08 05:49:18;;;;;;;;;;;0.50;99.90;;;;;;5089939;28;19989;-74
2022/03/08 05:51:45;;;;;;;;;;;0.40;99.90;;;;;;5090170;28;19931;-74
2022/03/08 05:54:11;;;;;;;;;;;0.40;99.90;;;;;;5089988;28;19928;-75
2022/03/08 05:56:38;;;;;;;;;;;0.40;99.90;;;;;;5090304;28;19931;-72
2022/03/08 05:59:05;;;;;;;;;;;0.40;99.90;;;;;;5089791;28;19931;-74
2022/03/08 06:01:32;;;;;;;;;;;0.40;99.90;;;;;;5087137;28;19947;-74
2022/03/08 06:03:59;;;;;;;;;;;0.40;99.90;;;;;;5087934;28;19924;-74
2022/03/08 06:06:27;;;;;;;;;;;0.40;99.90;;;;;;5089872;28;19928;-74
2022/03/08 06:08:54;;;;;;;;;;;0.30;99.90;;;;;;5088784;28;19989;-75
2022/03/08 06:11:21;;;;;;;;;;;0.30;99.90;;;;;;5090036;28;20405;-75
2022/03/08 06:13:48;;;;;;;;;;;0.30;99.90;;;;;;5089989;28;19924;-73
2022/03/08 06:16:14;;;;;;;;;;;0.30;99.90;;;;;;5089987;28;19924;-76
2022/03/08 06:18:41;;;;;;;;;;;0.40;99.90;;;;;;5089470;28;19932;-75
2022/03/08 06:21:08;;;;;;;;;;;0.40;99.90;;;;;;5089895;28;19931;-75
2022/03/08 06:23:36;;;;;;;;;;;0.40;99.90;;;;;;5089802;28;20395;-75
2022/03/08 06:26:04;;;;;;;;;;;0.40;99.90;;;;;;5089976;28;19935;-75
2022/03/08 06:28:30;;;;;;;;;;;0.40;99.90;;;;;;5089962;28;19928;-75
2022/03/08 06:30:57;;;;;;;;;;;0.40;99.90;;;;;;5089612;28;20341;-75
2022/03/08 06:33:24;;;;;;;;;;;0.40;99.90;;;;;;5089398;28;20403;-74
2022/03/08 06:35:51;;;;;;;;;;;0.40;99.90;;;;;;5089313;28;20342;-74
2022/03/08 06:38:17;;;;;;;;;;;0.40;99.90;;;;;;5089585;28;19924;-74
2022/03/08 06:40:46;;;;;;;;;;;0.50;99.90;;;;;;5088955;28;19935;-72
2022/03/08 06:43:12;;;;;;;;;;;0.50;99.90;;;;;;5123303;28;19924;-73
2022/03/08 06:45:39;;;;;;;;;;;0.50;99.90;;;;;;5090181;28;19924;-74
2022/03/08 06:48:06;;;;;;;;;;;0.60;99.90;;;;;;5089116;28;19928;-74
2022/03/08 06:50:33;;;;;;;;;;;0.60;99.90;;;;;;5089224;28;20002;-73
2022/03/08 06:53:00;;;;;;;;;;;0.60;99.90;;;;;;5089422;28;20391;-74
2022/03/08 06:55:26;;;;;;;;;;;0.60;99.90;;;;;;5089539;28;19924;-73
2022/03/08 06:57:55;;;;;;;;;;;0.70;99.90;;;;;;5089340;28;19924;-74
2022/03/08 07:00:21;;;;;;;;;;;0.80;99.90;;;;;;5089134;28;19935;-73
2022/03/08 07:02:48;;;;;;;;;;;0.80;99.90;;;;;;5089496;28;19924;-73
2022/03/08 07:05:15;;;;;;;;;;;0.90;99.90;;;;;;5089418;28;20414;-75
2022/03/08 07:07:42;;;;;;;;;;;1.00;99.90;;;;;;5089247;28;19924;-74
2022/03/08 07:10:09;;;;;;;;;;;1.00;99.90;;;;;;5088794;28;19931;-74
2022/03/08 07:12:36;;;;;;;;;;;1.10;99.90;;;;;;5088972;28;19935;-75
2022/03/08 07:15:04;;;;;;;;;;;1.10;99.90;;;;;;5089466;28;19954;-74
2022/03/08 07:17:31;;;;;;;;;;;1.20;99.90;;;;;;5088844;28;19947;-75
2022/03/08 07:19:58;;;;;;;;;;;1.20;99.90;;;;;;5121243;27;19925;-74
2022/03/08 07:22:24;;;;;;;;;;;1.30;99.90;;;;;;5092960;28;19932;-75
2022/03/08 07:24:52;;;;;;;;;;;1.30;99.90;;;;;;5092918;28;19946;-74
2022/03/08 07:27:18;;;;;;;;;;;1.30;99.90;;;;;;5093657;28;19924;-75
2022/03/08 07:29:46;;;;;;;;;;;1.40;99.90;;;;;;5092769;28;20346;-75
2022/03/08 07:32:15;;;;;;;;;;;1.50;99.90;;;;;;5093720;28;19924;-74
2022/03/08 07:34:42;;;;;;;;;;;1.60;99.90;;;;;;5093686;28;19924;-75
2022/03/08 07:37:09;;;;;;;;;;;1.70;99.90;;;;;;5093116;28;19928;-75
2022/03/08 07:39:36;;;;;;;;;;;1.70;99.90;;;;;;5094074;28;19928;-73
2022/03/08 07:42:02;;;;;;;;;;;1.80;99.90;;;;;;5099555;28;19928;-75
2022/03/08 07:44:29;;;;;;;;;;;1.90;99.90;;;;;;5085006;28;19924;-75
2022/03/08 07:46:56;;;;;;;;;;;1.90;99.90;;;;;;5092212;28;19924;-75
2022/03/08 07:49:25;;;;;;;;;;;2.00;99.90;;;;;;5084435;28;20384;-74
2022/03/08 07:51:52;;;;;;;;;;;2.00;99.90;;;;;;5117981;27;19928;-73
2022/03/08 07:54:19;;;;;;;;;;;2.10;99.90;;;;;;5084566;28;19924;-76
2022/03/08 07:56:46;;;;;;;;;;;2.10;99.90;;;;;;5093220;28;20415;-72
2022/03/08 07:59:13;;;;;;;;;;;2.20;99.90;;;;;;5126643;27;20326;-74
2022/03/08 08:01:39;;;;;;;;;;;2.20;99.90;;;;;;5127486;27;19977;-75
2022/03/08 08:04:06;;;;;;;;;;;2.30;99.90;;;;;;5124367;27;20399;-70
2022/03/08 08:06:35;;;;;;;;;;;2.40;99.90;;;;;;5093709;28;19989;-71
2022/03/08 08:09:02;;;;;;;;;;;2.40;99.90;;;;;;5126889;27;20479;-70
2022/03/08 08:11:28;;;;;;;;;;;2.50;99.90;;;;;;5127498;27;19924;-71
2022/03/08 08:13:55;;;;;;;;;;;2.60;99.90;;;;;;5092749;28;19928;-73
2022/03/08 08:16:23;;;;;;;;;;;2.70;99.90;;;;;;5090231;28;19944;-75
2022/03/08 08:18:50;;;;;;;;;;;2.70;99.90;;;;;;5089279;28;20361;-75
2022/03/08 08:21:17;;;;;;;;;;;2.80;99.90;;;;;;5088870;28;19932;-76
2022/03/08 08:23:45;;;;;;;;;;;2.90;99.90;;;;;;5092086;28;19947;-76
2022/03/08 08:26:12;;;;;;;;;;;2.90;99.90;;;;;;5092042;28;20387;-73
2022/03/08 08:28:39;;;;;;;;;;;3.00;99.90;;;;;;5091778;28;19924;-73
2022/03/08 08:31:06;;;;;;;;;;;3.10;99.90;;;;;;5090037;28;19981;-75
2022/03/08 08:33:33;;;;;;;;;;;3.10;99.90;;;;;;5087484;28;19931;-74
2022/03/08 08:35:59;;;;;;;;;;;3.20;99.90;;;;;;5118318;27;19939;-74
2022/03/08 08:38:26;;;;;;;;;;;3.30;99.90;;;;;;5085895;28;19950;-73
2022/03/08 08:40:55;;;;;;;;;;;3.40;99.90;;;;;;5118399;27;19924;-74
2022/03/08 08:43:21;;;;;;;;;;;3.50;99.90;;;;;;5090191;28;19924;-74
2022/03/08 08:45:51;;;;;;;;;;;3.50;99.90;;;;;;5122489;27;19931;-74
2022/03/08 08:48:20;;;;;;;;;;;3.60;99.90;;;;;;5091938;28;20288;-74
2022/03/08 08:50:47;;;;;;;;;;;3.70;99.90;;;;;;5120136;27;19943;-74
2022/03/08 08:53:14;;;;;;;;;;;3.80;99.90;;;;;;5124341;27;20019;-74
2022/03/08 08:55:41;;;;;;;;;;;3.90;99.90;;;;;;5114238;27;20276;-74
2022/03/08 08:58:09;;;;;;;;;;;4.00;99.90;;;;;;5125923;27;19925;-73
2022/03/08 09:00:36;;;;;;;;;;;4.10;99.90;;;;;;5122908;27;20419;-74
2022/03/08 09:03:03;;;;;;;;;;;4.20;99.90;;;;;;5091625;28;19931;-74
2022/03/08 09:05:30;;;;;;;;;;;4.20;99.90;;;;;;5126217;27;19931;-74
2022/03/08 09:07:57;;;;;;;;;;;4.30;99.90;;;;;;5125505;27;19928;-74
2022/03/08 09:10:24;;;;;;;;;;;4.40;99.90;;;;;;5090693;28;20364;-74
2022/03/08 09:12:51;;;;;;;;;;;4.50;99.90;;;;;;5086890;28;19928;-74
2022/03/08 09:15:20;;;;;;;;;;;4.50;99.90;;;;;;5123729;27;19930;-74
2022/03/08 09:17:47;;;;;;;;;;;4.60;99.90;;;;;;5085241;28;19931;-74
2022/03/08 09:20:14;;;;;;;;;;;4.70;99.90;;;;;;5087533;28;19928;-74
2022/03/08 09:22:41;;;;;;;;;;;4.70;99.90;;;;;;5091195;28;19931;-74
2022/03/08 09:25:08;;;;;;;;;;;4.80;99.90;;;;;;5088583;28;19928;-74
2022/03/08 09:27:35;;;;;;;;;;;4.90;99.90;;;;;;5091969;28;19924;-74
2022/03/08 09:30:02;;;;;;;;;;;5.00;99.90;;;;;;5091810;28;19939;-74
2022/03/08 09:32:30;;;;;;;;;;;5.10;99.90;;;;;;5126772;27;19954;-75
2022/03/08 09:34:57;;;;;;;;;;;5.20;99.90;;;;;;5120276;27;20338;-75
2022/03/08 09:37:25;;;;;;;;;;;5.30;99.90;;;;;;5089662;28;19924;-73
2022/03/08 09:39:52;;;;;;;;;;;5.40;99.60;;;;;;5090418;28;19950;-74
2022/03/08 09:42:20;;;;;;;;;;;5.50;99.30;;;;;;5117270;27;20319;-74
2022/03/08 09:44:48;;;;;;;;;;;5.60;99.50;;;;;;5119529;27;19924;-74
2022/03/08 09:47:15;;;;;;;;;;;5.60;98.80;;;;;;5121275;27;19924;-73
2022/03/08 09:49:44;;;;;;;;;;;5.70;98.40;;;;;;5116841;27;19924;-73
2022/03/08 09:52:11;;;;;;;;;;;5.80;98.90;;;;;;5116792;27;19924;-74
2022/03/08 09:54:37;;;;;;;;;;;5.90;98.60;;;;;;5086323;28;20350;-74
2022/03/08 09:57:08;;;;;;;;;;;6.00;97.70;;;;;;5087858;28;19928;-74
2022/03/08 09:59:35;;;;;;;;;;;6.00;98.10;;;;;;5089630;28;19924;-75
2022/03/08 10:02:01;;;;;;;;;;;6.20;98.10;;;;;;5121409;27;19924;-74
2022/03/08 10:04:28;;;;;;;;;;;6.30;98.20;;;;;;5090686;28;19924;-74
2022/03/08 10:06:57;;;;;;;;;;;6.40;97.50;;;;;;5082444;28;19925;-75
2022/03/08 10:09:24;;;;;;;;;;;6.50;97.70;;;;;;5093005;28;19929;-74
2022/03/08 10:11:52;;;;;;;;;;;6.70;97.70;;;;;;5101513;28;19931;-74
2022/03/08 10:14:29;;;;;;;;;;;6.70;96.20;;;;;;5089442;28;19924;-75
2022/03/08 10:16:55;;;;;;;;;;;6.80;96.50;;;;;;5116461;28;19971;-74
2022/03/08 10:19:22;;;;;;;;;;;6.90;95.90;;;;;;5124423;28;19924;-74
2022/03/08 10:21:51;;;;;;;;;;;7.00;95.90;;;;;;5091063;28;19928;-75
2022/03/08 10:24:21;;;;;;;;;;;7.00;95.20;;;;;;5092062;28;19924;-75
2022/03/08 10:26:49;;;;;;;;;;;7.00;95.40;;;;;;5090748;28;19943;-74
2022/03/08 10:29:21;;;;;;;;;;;7.10;95.20;;;;;;5090749;28;19924;-74
2022/03/08 10:31:49;;;;;;;;;;;7.20;95.20;;;;;;5091383;28;19963;-74
2022/03/08 10:34:17;;;;;;;;;;;7.40;95.60;;;;;;5090484;28;20375;-74
2022/03/08 10:37:02;;;;;;;;;;;7.50;94.90;;;;;;5091040;28;19924;-75
2022/03/08 10:39:30;;;;;;;;;;;7.60;95.40;;;;;;5091132;28;20417;-74
2022/03/08 10:41:58;;;;;;;;;;;7.70;95.20;;;;;;5090845;28;19928;-72
2022/03/08 10:44:35;;;;;;;;;;;7.80;94.20;;;;;;5088346;28;19924;-74
2022/03/08 10:47:04;;;;;;;;;;;7.90;94.30;;;;;;5122764;28;19924;-73
2022/03/08 10:49:30;;;;;;;;;;;7.90;94.10;;;;;;5085671;28;19928;-74
2022/03/08 10:52:02;;;;;;;;;;;8.10;94.30;;;;;;5124510;28;19985;-74
2022/03/08 10:54:29;;;;;;;;;;;8.20;94.30;;;;;;5126143;27;19932;-75
2022/03/08 10:56:57;;;;;;;;;;;8.40;93.50;;;;;;5128522;27;20407;-75
2022/03/08 10:59:25;;;;;;;;;;;8.50;94.00;;;;;;5121819;27;19924;-75
2022/03/08 11:01:52;;;;;;;;;;;8.80;94.70;;;;;;5091495;28;20401;-75
2022/03/08 11:04:20;;;;;;;;;;;8.90;94.40;;;;;;5094387;28;19924;-75
2022/03/08 11:06:50;;;;;;;;;;;10.70;92.30;;;;;;5128690;27;19954;-76
2022/03/08 11:09:17;;;;;;;;;;;15.60;91.40;;;;;;5128371;27;20027;-75
2022/03/08 11:11:44;;;;;;;;;;;18.50;85.30;;;;;;5094158;28;20371;-76
2022/03/08 11:14:12;;;;;;;;;;;19.60;85.00;;;;;;5094031;28;19932;-76
2022/03/08 11:16:39;;;;;;;;;;;20.70;82.20;;;;;;5094426;28;19931;-76
2022/03/08 11:19:06;;;;;;;;;;;21.50;79.70;;;;;;5093827;28;19992;-75
2022/03/08 11:21:34;;;;;;;;;;;19.10;79.80;;;;;;5093391;28;19931;-76
2022/03/08 11:24:02;;;;;;;;;;;19.80;78.90;;;;;;5127867;27;19924;-76
2022/03/08 11:26:29;;;;;;;;;;;21.60;78.30;;;;;;5127898;27;19924;-76
2022/03/08 11:28:56;;;;;;;;;;;21.40;76.80;;;;;;5093545;28;19931;-75
2022/03/08 11:31:27;;;;;;;;;;;21.50;76.70;;;;;;5093681;28;20460;-76
2022/03/08 11:33:59;;;;;;;;;;;22.40;77.30;;;;;;5093639;28;19928;-76
2022/03/08 11:36:28;;;;;;;;;;;22.30;75.70;;;;;;5090427;28;20016;-76
2022/03/08 11:39:12;;;;;;;;;;;21.20;74.90;;;;;;5123086;27;20360;-75
2022/03/08 11:41:38;;;;;;;;;;;21.40;75.30;;;;;;5113144;27;20404;-76
2022/03/08 11:44:06;;;;;;;;;;;20.50;75.50;;;;;;5090372;28;19924;-74
2022/03/08 11:46:34;;;;;;;;;;;19.30;74.50;;;;;;5093503;28;19963;-74
2022/03/08 11:49:02;;;;;;;;;;;19.10;72.50;;;;;;5127265;27;19924;-74
2022/03/08 11:51:29;;;;;;;;;;;20.20;73.60;;;;;;5127524;27;20411;-75
2022/03/08 11:54:06;;;;;;;;;;;22.20;74.90;;;;;;5127568;27;19924;-74
2022/03/08 11:56:44;;;;;;;;;;;22.70;73.40;;;;;;5128161;27;19967;-74
2022/03/08 11:59:11;;;;;;;;;;;22.90;73.80;;;;;;5127582;27;19932;-74
2022/03/08 12:01:39;;;;;;;;;;;22.70;72.90;;;;;;5092875;28;20448;-75
2022/03/08 12:04:09;;;;;;;;;;;23.10;72.50;;;;;;5127541;27;19959;-75
2022/03/08 12:06:36;;;;;;;;;;;22.80;72.00;;;;;;5092371;28;19995;-75
2022/03/08 12:09:10;;;;;;;;;;;22.90;71.70;;;;;;5126815;27;19924;-75
2022/03/08 12:11:41;;;;;;;;;;;24.20;73.80;;;;;;5112884;27;20353;-75
2022/03/08 12:14:09;;;;;;;;;;;24.40;71.50;;;;;;5126961;27;20326;-75
2022/03/08 12:16:39;;;;;;;;;;;23.60;69.50;;;;;;5092622;28;19923;-75
2022/03/08 12:19:08;;;;;;;;;;;23.70;70.80;;;;;;5092545;28;19924;-75
2022/03/08 12:21:37;;;;;;;;;;;23.30;70.10;;;;;;5092964;28;19924;-74
2022/03/08 12:24:05;;;;;;;;;;;22.80;69.70;;;;;;5092892;28;19947;-75
2022/03/08 12:26:34;;;;;;;;;;;23.70;70.60;;;;;;5092785;28;19924;-75
2022/03/08 12:29:06;;;;;;;;;;;23.20;68.80;;;;;;5092050;28;19930;-75
2022/03/08 12:31:32;;;;;;;;;;;23.30;68.90;;;;;;5092637;28;19924;-74
2022/03/08 12:34:03;;;;;;;;;;;21.90;66.90;;;;;;5092349;28;19928;-75
2022/03/08 12:36:31;;;;;;;;;;;22.00;68.50;;;;;;5091012;28;19931;-74
2022/03/08 12:38:58;;;;;;;;;;;22.10;68.80;;;;;;5089610;28;20398;-75
2022/03/08 12:41:25;;;;;;;;;;;21.70;67.20;;;;;;5090784;28;19977;-75
2022/03/08 12:43:59;;;;;;;;;;;23.70;71.30;;;;;;5091259;28;19924;-75
2022/03/08 12:46:26;;;;;;;;;;;24.30;69.90;;;;;;5124859;27;20342;-74
2022/03/08 12:48:53;;;;;;;;;;;24.00;68.20;;;;;;5125951;27;19931;-74
2022/03/08 12:51:21;;;;;;;;;;;22.30;67.30;;;;;;5091948;28;20369;-75
2022/03/08 12:53:54;;;;;;;;;;;22.60;67.30;;;;;;5092044;28;19924;-75
2022/03/08 12:56:21;;;;;;;;;;;23.40;69.60;;;;;;5091935;28;19924;-76
2022/03/08 12:58:47;;;;;;;;;;;22.70;66.90;;;;;;5091676;28;19984;-73
2022/03/08 13:01:14;;;;;;;;;;;22.00;67.60;;;;;;5091835;28;20280;-73
2022/03/08 13:03:43;;;;;;;;;;;21.70;67.20;;;;;;5092050;28;19925;-75
2022/03/08 13:06:10;;;;;;;;;;;22.30;67.50;;;;;;5110757;28;19934;-76
2022/03/08 13:08:37;;;;;;;;;;;22.80;67.90;;;;;;5112424;28;19924;-76
2022/03/08 13:11:08;;;;;;;;;;;22.70;68.30;;;;;;5103507;28;20451;-76
2022/03/08 13:13:37;;;;;;;;;;;23.10;68.80;;;;;;5091438;28;19928;-75
2022/03/08 13:16:04;;;;;;;;;;;22.50;67.80;;;;;;5125393;27;19931;-75
2022/03/08 13:18:36;;;;;;;;;;;22.40;69.00;;;;;;5091533;28;19973;-76
2022/03/08 13:21:03;;;;;;;;;;;21.70;66.60;;;;;;5125675;27;19931;-75
2022/03/08 13:23:34;;;;;;;;;;;21.20;66.90;;;;;;5125942;27;19943;-75
2022/03/08 13:26:02;;;;;;;;;;;21.50;66.90;;;;;;5125171;27;20015;-76
2022/03/08 13:28:31;;;;;;;;;;;21.20;65.90;;;;;;5124935;27;20083;-77
2022/03/08 13:30:59;;;;;;;;;;;22.00;67.30;;;;;;5124196;27;19928;-75
2022/03/08 13:33:27;;;;;;;;;;;21.10;66.00;;;;;;5125430;27;19973;-74
2022/03/08 13:35:56;;;;;;;;;;;21.00;67.20;;;;;;5124703;27;20395;-75
2022/03/08 13:38:23;;;;;;;;;;;21.40;67.40;;;;;;5124394;27;19971;-76
2022/03/08 13:40:51;;;;;;;;;;;20.70;65.80;;;;;;5123918;27;19931;-76
2022/03/08 13:43:19;;;;;;;;;;;20.30;67.20;;;;;;5124319;27;19924;-76
2022/03/08 13:45:47;;;;;;;;;;;20.10;66.70;;;;;;5124300;27;19969;-75
2022/03/08 13:48:17;;;;;;;;;;;19.70;66.50;;;;;;5124123;27;19981;-75
2022/03/08 13:50:46;;;;;;;;;;;19.70;68.10;;;;;;5124100;27;19974;-76
2022/03/08 13:53:14;;;;;;;;;;;19.90;67.20;;;;;;5124404;27;19947;-76
2022/03/08 13:55:42;;;;;;;;;;;20.00;68.10;;;;;;5124012;27;20394;-78
2022/03/08 13:58:13;;;;;;;;;;;19.90;67.60;;;;;;5124262;27;19939;-75
2022/03/08 14:00:40;;;;;;;;;;;19.10;66.90;;;;;;5123681;27;19932;-75
2022/03/08 14:03:10;;;;;;;;;;;18.80;66.10;;;;;;5124573;27;19928;-75
2022/03/08 14:05:53;;;;;;;;;;;18.70;66.80;;;;;;5124201;27;19932;-78
2022/03/08 14:08:28;;;;;;;;;;;18.10;66.40;;;;;;5124485;28;19928;-76
2022/03/08 14:10:56;;;;;;;;;;;17.90;66.00;;;;;;5124112;28;19930;-76
2022/03/08 14:13:22;;;;;;;;;;;18.30;66.70;;;;;;5090360;28;19975;-76
2022/03/08 14:15:53;;;;;;;;;;;18.80;66.90;;;;;;5090395;28;20039;-75
2022/03/08 14:18:21;;;;;;;;;;;19.00;66.00;;;;;;5090312;28;19928;-76
2022/03/08 14:20:48;;;;;;;;;;;18.50;66.20;;;;;;5089907;28;19973;-76
2022/03/08 14:23:15;;;;;;;;;;;17.90;65.90;;;;;;5090513;28;19924;-76
2022/03/08 14:25:57;;;;;;;;;;;17.70;66.40;;;;;;5090050;28;20298;-76
2022/03/08 14:28:38;;;;;;;;;;;17.80;66.90;;;;;;5090122;28;20462;-76